»·PEaware :: N3452E KSAC-KRDD

N3452E :: KSAC-KRDD

FLIGHT INFORMATION

Flight Status: Arrived
Operator: Privately registered:
United States
More flights under this callsign
Pilot: John C. (27555)
Aircraft: BEECH AIRCRAFT DEBONAIR BONANZA
(BE33)
More flights by this aircraft type
Origin: KSAC Sacramento Executive
United States
Destination: KRDD Redding Mun
United States
More flights between these airports :: More routes between these airports
Route: EYPOF V23 RBL
File this flight plan on PilotEdge
Remarks:
Altitude:
(Current/Filed)
6,000ft
Speed:
(Current/Filed)
150kts
Departed: 13-Oct-20 07:38 PM
Arrived: 13-Oct-20 08:36 PM
Distance/Time
Traveled:
125nm/0:58
Distance/Time
To Go:
Arrived

Flight Plot

Page will automatically refresh every two minutes.

Flight plan parsing failed; only flown route is shown


Map Options




Map Legend


Flown Route
Filed Route
Departure Airport
Arrival Airport
Navaid (VOR, NDB)
Fix

Horizontal Profiles

Position Reports

Time Latitude Longitude Heading Altitude Ground
Speed
13-Oct-20 19:18 38.514686 -121.499312 223 27ft 0kts
13-Oct-20 19:19 38.514686 -121.499312 223 27ft 0kts
13-Oct-20 19:20 38.514686 -121.499312 223 27ft 0kts
13-Oct-20 19:21 38.514686 -121.499312 223 27ft 0kts
13-Oct-20 19:22 38.514686 -121.499312 223 27ft 0kts
13-Oct-20 19:23 38.514686 -121.499312 223 27ft 0kts
13-Oct-20 19:24 38.514686 -121.499312 223 27ft 0kts
13-Oct-20 19:25 38.514686 -121.499312 223 27ft 0kts
13-Oct-20 19:26 38.514686 -121.499312 223 27ft 0kts
13-Oct-20 19:27 38.514686 -121.499312 223 27ft 0kts
13-Oct-20 19:28 38.514686 -121.499312 223 27ft 0kts
13-Oct-20 19:29 38.514686 -121.499312 223 27ft 0kts
13-Oct-20 19:30 38.514686 -121.499312 223 27ft 0kts
13-Oct-20 19:31 38.514155 -121.497340 116 27ft 8kts
13-Oct-20 19:32 38.513553 -121.495705 89 27ft 3kts
13-Oct-20 19:33 38.514701 -121.494533 33 27ft 6kts
13-Oct-20 19:34 38.517759 -121.491998 32 26ft 18kts
13-Oct-20 19:35 38.519262 -121.490380 93 27ft 0kts
13-Oct-20 19:36 38.519059 -121.489615 127 27ft 8kts
13-Oct-20 19:37 38.507199 -121.499314 216 211ft 101kts
13-Oct-20 19:38 38.488766 -121.483625 103 1390ft 112kts
13-Oct-20 19:39 38.482380 -121.446434 102 2642ft 104kts
13-Oct-20 19:40 38.498732 -121.428672 354 3733ft 95kts
13-Oct-20 19:41 38.524664 -121.435659 326 4651ft 97kts
13-Oct-20 19:42 38.547358 -121.452380 326 5610ft 92kts
13-Oct-20 19:43 38.572626 -121.471028 328 6008ft 133kts
13-Oct-20 19:44 38.608851 -121.497227 329 5998ft 158kts
13-Oct-20 19:45 38.647794 -121.525582 329 5996ft 162kts
13-Oct-20 19:46 38.687046 -121.554278 329 5995ft 162kts
13-Oct-20 19:47 38.726300 -121.583018 329 5993ft 162kts
13-Oct-20 19:48 38.765632 -121.611881 329 5991ft 162kts
13-Oct-20 19:49 38.804782 -121.640637 329 5990ft 162kts
13-Oct-20 19:50 38.844100 -121.669549 328 5991ft 162kts
13-Oct-20 19:51 38.885607 -121.692192 342 5993ft 164kts
13-Oct-20 19:52 38.923665 -121.704830 343 5992ft 163kts
13-Oct-20 19:53 38.967596 -121.719060 343 5991ft 162kts
13-Oct-20 19:54 39.011335 -121.733183 343 5991ft 161kts
13-Oct-20 19:55 39.054753 -121.747186 343 5989ft 160kts
13-Oct-20 19:56 39.097858 -121.761108 343 5989ft 159kts
13-Oct-20 19:57 39.140980 -121.775051 343 5992ft 160kts
13-Oct-20 19:58 39.184040 -121.788993 343 5991ft 160kts
13-Oct-20 19:59 39.227215 -121.803007 343 5994ft 160kts
13-Oct-20 20:00 39.270422 -121.817046 344 5998ft 159kts
13-Oct-20 20:01 39.313473 -121.831022 344 6003ft 160kts
13-Oct-20 20:02 39.355392 -121.850100 337 6008ft 159kts
13-Oct-20 20:03 39.396814 -121.871216 337 6009ft 160kts
13-Oct-20 20:04 39.438099 -121.892436 337 6009ft 160kts
13-Oct-20 20:05 39.479431 -121.913758 337 6009ft 160kts
13-Oct-20 20:06 39.521127 -121.935265 337 5962ft 160kts
13-Oct-20 20:07 39.562556 -121.956689 337 5963ft 160kts
13-Oct-20 20:08 39.603891 -121.978134 338 5985ft 157kts
13-Oct-20 20:09 39.644240 -121.999069 339 5989ft 155kts
13-Oct-20 20:10 39.684315 -122.019816 339 5990ft 154kts
13-Oct-20 20:11 39.724238 -122.040551 339 5989ft 154kts
13-Oct-20 20:12 39.764063 -122.061269 339 5989ft 154kts
13-Oct-20 20:13 39.804119 -122.082132 339 5989ft 154kts
13-Oct-20 20:14 39.844054 -122.102958 339 5989ft 154kts
13-Oct-20 20:15 39.884052 -122.123806 338 5987ft 155kts
13-Oct-20 20:16 39.924119 -122.144718 337 5985ft 155kts
13-Oct-20 20:17 39.964518 -122.165836 335 5982ft 157kts
13-Oct-20 20:18 40.005331 -122.187256 335 5980ft 159kts
13-Oct-20 20:19 40.046634 -122.208956 335 5980ft 159kts
13-Oct-20 20:20 40.087909 -122.230632 335 5987ft 159kts
13-Oct-20 20:21 40.131919 -122.240949 350 5991ft 162kts
13-Oct-20 20:22 40.176880 -122.247202 350 5990ft 162kts
13-Oct-20 20:23 40.222427 -122.253370 350 5592ft 161kts
13-Oct-20 20:24 40.265314 -122.259456 350 4872ft 152kts
13-Oct-20 20:25 40.307004 -122.264880 352 4162ft 147kts
13-Oct-20 20:26 40.343031 -122.268371 352 3231ft 124kts
13-Oct-20 20:27 40.376655 -122.271750 352 2562ft 120kts
13-Oct-20 20:28 40.410185 -122.275255 352 2077ft 121kts
13-Oct-20 20:29 40.443960 -122.278483 355 1935ft 121kts
13-Oct-20 20:30 40.477992 -122.278483 357 1646ft 124kts
13-Oct-20 20:31 40.509960 -122.277823 358 1473ft 109kts
13-Oct-20 20:32 40.538797 -122.276747 355 1418ft 98kts
13-Oct-20 20:33 40.542485 -122.298057 171 1090ft 102kts
13-Oct-20 20:34 40.516777 -122.294832 182 513ft 77kts
13-Oct-20 20:35 40.508303 -122.296014 308 506ft 0kts
13-Oct-20 20:36 40.508332 -122.296064 306 506ft 6kts
13-Oct-20 20:37 40.508644 -122.297915 358 506ft 2kts

Navigation Log

Ident Type
Flight plan parsing failed, navigation log unavailable